Weather History for Pecos, TX

Change the Weather History Date:

Sunday, February 17, 2013

  Actual Average Record
Temperature  
Mean Temperature 49 °F -  
Max Temperature 73 °F 66 °F 86 °F (2011)
Min Temperature 25 °F 32 °F 14 °F (1966)
Degree Days  
Heating Degree Days 16    
Moisture  
Dew Point 15 °F    
Average Humidity 33    
Maximum Humidity 58    
Minimum Humidity 11    
Precipitation  
Precipitation 0.00 in - - ()
Sea Level Pressure  
Sea Level Pressure 29.95 in    
Wind  
Wind Speed 4 mph (South)    
Max Wind Speed 12 mph    
Max Gust Speed -    
Visibility 10 miles    
Events      
Averages and records for this station are not official NWS values.
T = Trace of Precipitation, MM = Missing Value Source: NWS Daily Summary

Daily Weather History Graph

Daily Weather History Graph

Search for Another Location

Airport:

Trip Planner

Search our weather history database for the weather conditions in past years. The results will help you decide how hot, cold, wet, or windy it might be!

Date:

Astronomy

Feb. 17, 2013 Rise Set
Actual Time 7:33 AM CST 6:43 PM CST
Civil Twilight 7:08 AM CST 7:07 PM CST
Nautical Twilight 6:40 AM CST 7:36 PM CST
Astronomical Twilight 6:11 AM CST 8:04 PM CST
Moon 11:57 AM CST (2/17) 1:11 AM CST (2/17)
Length of Visible Light 11h 59m
Length of Day
11h 09m
Waxing Crescent, 49% of the Moon is Illuminated
Feb 17
Waxing Crescent
Feb 17
First Quarter
Feb 25
Full
Mar 4
Last Quarter
Mar 11
New

Hourly Weather History & Observations

Time (CST) Temp. Windchill Dew Point Humidity Pressure Visibility Wind Dir Wind Speed Gust Speed Precip Events Conditions
12:15 AM 36.7 °F 29.9 °F 13.8 °F 39% 30.12 in 10.0 mi SW 9.2 mph - N/A   Clear
12:35 AM 38.3 °F 31.4 °F 14.0 °F 37% 30.11 in 10.0 mi SSW 10.4 mph - N/A   Clear
12:55 AM 38.5 °F 33.4 °F 13.8 °F 37% 30.10 in 10.0 mi SW 6.9 mph - N/A   Clear
1:15 AM 35.1 °F - 13.8 °F 42% 30.10 in 10.0 mi Calm Calm - N/A   Clear
1:35 AM 34.7 °F - 14.5 °F 44% 30.09 in 10.0 mi Calm Calm - N/A   Clear
1:55 AM 34.3 °F 31.4 °F 14.0 °F 43% 30.09 in 10.0 mi WSW 3.5 mph - N/A   Clear
2:15 AM 32.9 °F - 13.8 °F 45% 30.09 in 10.0 mi Calm Calm - N/A   Clear
2:35 AM 34.5 °F - 14.2 °F 43% 30.09 in 10.0 mi Calm Calm - N/A   Clear
2:55 AM 29.7 °F - 13.8 °F 52% 30.07 in 10.0 mi Calm Calm - N/A   Clear
3:15 AM 28.9 °F 25.2 °F 13.6 °F 53% 30.07 in 10.0 mi ESE 3.5 mph - N/A   Clear
3:35 AM 28.9 °F 25.2 °F 13.3 °F 52% 30.07 in 10.0 mi ESE 3.5 mph - N/A   Clear
3:55 AM 27.1 °F 23.2 °F 12.7 °F 55% 30.06 in 10.0 mi East 3.5 mph - N/A   Clear
4:15 AM 27.5 °F 22.2 °F 12.4 °F 53% 30.06 in 10.0 mi East 4.6 mph - N/A   Clear
4:35 AM 26.1 °F - 12.0 °F 55% 30.06 in 10.0 mi Calm Calm - N/A   Clear
4:55 AM 27.0 °F - 12.2 °F 54% 30.05 in 10.0 mi Calm Calm - N/A   Clear
5:15 AM 27.3 °F 23.4 °F 12.0 °F 53% 30.05 in 10.0 mi East 3.5 mph - N/A   Clear
5:35 AM 26.8 °F - 12.0 °F 54% 30.05 in 10.0 mi Calm Calm - N/A   Clear
5:55 AM 26.8 °F 21.4 °F 12.9 °F 56% 30.05 in 10.0 mi SE 4.6 mph - N/A   Clear
6:15 AM 25.5 °F 21.3 °F 12.6 °F 58% 30.05 in 10.0 mi ESE 3.5 mph - N/A   Clear
6:35 AM 26.6 °F - 13.1 °F 57% 30.05 in 10.0 mi Calm Calm - N/A   Clear
6:55 AM 27.3 °F - 13.1 °F 55% 30.04 in 10.0 mi Calm Calm - N/A   Clear
7:15 AM 27.3 °F - 13.6 °F 56% 30.05 in 10.0 mi Calm Calm - N/A   Clear
7:35 AM 28.4 °F - 14.0 °F 55% 30.05 in 10.0 mi Calm Calm - N/A   Clear
7:55 AM 27.9 °F 24.0 °F 14.0 °F 56% 30.05 in 10.0 mi ESE 3.5 mph - N/A   Clear
8:15 AM 29.1 °F - 15.3 °F 56% 30.05 in 10.0 mi Calm Calm - N/A   Clear
8:35 AM 31.3 °F - 16.7 °F 55% 30.05 in 10.0 mi Calm Calm - N/A   Clear
8:55 AM 32.9 °F - 16.9 °F 52% 30.05 in 10.0 mi Calm Calm - N/A   Clear
9:15 AM 35.6 °F - 18.0 °F 49% 30.05 in 10.0 mi Calm Calm - N/A   Clear
9:35 AM 39.6 °F - 18.1 °F 42% 30.05 in 10.0 mi Calm Calm - N/A   Clear
9:55 AM 41.4 °F - 17.6 °F 38% 30.05 in 10.0 mi Calm Calm - N/A   Clear
10:15 AM 45.5 °F - 17.8 °F 33% 30.05 in 10.0 mi Calm Calm - N/A   Clear
10:35 AM 48.2 °F - 19.6 °F 32% 30.04 in 10.0 mi Calm Calm - N/A   Clear
10:55 AM 52.9 °F - 19.4 °F 27% 30.03 in 10.0 mi ENE 4.6 mph - N/A   Clear
11:15 AM 56.7 °F - 18.3 °F 22% 30.02 in 10.0 mi NE 6.9 mph - N/A   Clear
11:35 AM 58.5 °F - 17.8 °F 21% 30.02 in 10.0 mi ENE 8.1 mph - N/A   Clear
11:55 AM 61.3 °F - 18.7 °F 19% 30.00 in 10.0 mi ENE 4.6 mph - N/A   Clear
12:15 PM 63.9 °F - 17.6 °F 17% 29.99 in 10.0 mi East 5.8 mph - N/A   Clear
12:55 PM 66.0 °F - 16.9 °F 15% 29.96 in 10.0 mi ESE 4.6 mph - N/A   Clear
1:35 PM 68.9 °F - 16.2 °F 13% 29.92 in 10.0 mi SE 3.5 mph - N/A   Clear
1:55 PM 69.8 °F - 16.2 °F 13% 29.90 in 10.0 mi East 3.5 mph - N/A   Clear
2:35 PM 71.6 °F - 14.9 °F 11% 29.86 in 10.0 mi South 6.9 mph - N/A   Clear
2:55 PM 72.0 °F - 15.3 °F 12% 29.85 in 10.0 mi Calm Calm - N/A   Clear
3:15 PM 72.7 °F - 15.3 °F 11% 29.84 in 10.0 mi Calm Calm - N/A   Clear
3:35 PM 72.9 °F - 15.4 °F 11% 29.83 in 10.0 mi Calm Calm - N/A   Clear
3:55 PM 73.4 °F - 16.0 °F 11% 29.83 in 10.0 mi South 5.8 mph - N/A   Clear
4:15 PM 73.4 °F - 16.5 °F 12% 29.82 in 10.0 mi South 5.8 mph - N/A   Clear
4:35 PM 73.8 °F - 16.9 °F 12% 29.81 in 10.0 mi SSW 6.9 mph - N/A   Clear
4:55 PM 73.4 °F - 16.5 °F 12% 29.80 in 10.0 mi SSW 9.2 mph - N/A   Clear
5:15 PM 73.4 °F - 16.9 °F 12% 29.80 in 10.0 mi SSW 5.8 mph - N/A   Clear
5:35 PM 70.9 °F - 17.1 °F 13% 29.79 in 10.0 mi SSW 4.6 mph - N/A   Clear
5:55 PM 70.5 °F - 17.2 °F 13% 29.79 in 10.0 mi SW 4.6 mph - N/A   Clear
6:15 PM 69.6 °F - 17.4 °F 14% 29.79 in 10.0 mi WSW 5.8 mph - N/A   Clear
6:35 PM 66.0 °F - 15.6 °F 14% 29.79 in 10.0 mi WSW 8.1 mph - N/A   Clear
6:55 PM 63.1 °F - 14.7 °F 15% 29.79 in 10.0 mi WSW 11.5 mph - N/A   Clear
7:15 PM 65.3 °F - 15.3 °F 14% 29.80 in 10.0 mi SW 11.5 mph - N/A   Clear
7:35 PM 62.6 °F - 14.9 °F 16% 29.80 in 10.0 mi SW 9.2 mph - N/A   Clear
8:15 PM 58.1 °F - 14.2 °F 18% 29.79 in 10.0 mi SSW 9.2 mph - N/A   Clear
8:35 PM 55.4 °F - 13.8 °F 19% 29.79 in 10.0 mi SSW 10.4 mph - N/A   Clear
8:55 PM 53.6 °F - 14.0 °F 21% 29.79 in 10.0 mi South 9.2 mph - N/A   Clear
9:15 PM 52.7 °F - 13.8 °F 21% 29.79 in 10.0 mi SSW 8.1 mph - N/A   Clear
9:35 PM 50.9 °F - 14.5 °F 24% 29.80 in 10.0 mi SSW 9.2 mph - N/A   Clear
9:55 PM 49.3 °F - 14.0 °F 24% 29.80 in 10.0 mi SSE 4.6 mph - N/A   Clear
10:15 PM 46.4 °F 43.5 °F 14.0 °F 27% 29.81 in 10.0 mi South 5.8 mph - N/A   Clear
10:55 PM 46.6 °F - 15.4 °F 29% 29.81 in 10.0 mi West 8.1 mph - N/A   Clear
11:15 PM 45.3 °F 44.0 °F 15.4 °F 30% 29.82 in 10.0 mi WSW 3.5 mph - N/A   Clear
11:35 PM 46.0 °F 43.1 °F 15.3 °F 29% 29.82 in 10.0 mi SW 5.8 mph - N/A   Clear
11:55 PM 47.1 °F - 15.3 °F 28% 29.81 in 10.0 mi SSW 5.8 mph - N/A   Clear